Time;durP1;ratioP1;P1;durP2;ratioP2;P2;SDS_P1;SDS_P2;PMS_P1;PMS_P2;Temp;Humidity;BMP_temperature;BMP_pressure;BME280_temperature;BME280_humidity;BME280_pressure;Samples;Min_cycle;Max_cycle;Signal;HPM_P1;HPM_P2
2023/08/20 00:01:28;;;;;;;9.20;8.37;;;;;;;23.56;100.00;100553.69;4981952;28;20276;-76
2023/08/20 00:03:54;;;;;;;9.37;8.67;;;;;;;23.54;100.00;100545.88;4979357;28;20264;-75
2023/08/20 00:06:20;;;;;;;9.90;9.00;;;;;;;23.52;100.00;100554.84;4984642;28;20288;-75
2023/08/20 00:08:46;;;;;;;9.30;8.60;;;;;;;23.49;100.00;100549.75;4983693;28;20270;-75
2023/08/20 00:11:12;;;;;;;9.43;8.73;;;;;;;23.43;100.00;100553.59;4984183;28;20521;-76
2023/08/20 00:13:38;;;;;;;9.03;8.23;;;;;;;23.40;100.00;100551.13;4985609;28;20189;-76
2023/08/20 00:16:04;;;;;;;8.90;8.30;;;;;;;23.36;100.00;100546.97;4986196;28;20275;-76
2023/08/20 00:18:30;;;;;;;9.50;8.73;;;;;;;23.34;100.00;100544.41;4984242;28;20189;-77
2023/08/20 00:20:55;;;;;;;8.30;7.70;;;;;;;23.32;100.00;100551.56;4982068;28;20674;-76
2023/08/20 00:23:21;;;;;;;8.73;8.03;;;;;;;23.31;100.00;100559.56;4985088;28;20192;-76
2023/08/20 00:25:46;;;;;;;8.70;8.10;;;;;;;23.30;100.00;100561.38;4985681;28;20209;-76
2023/08/20 00:28:12;;;;;;;8.50;7.90;;;;;;;23.29;100.00;100565.78;4984017;28;20239;-75
2023/08/20 00:30:37;;;;;;;8.03;7.53;;;;;;;23.29;100.00;100571.06;4986406;28;20188;-76
2023/08/20 00:33:03;;;;;;;8.50;7.80;;;;;;;23.28;100.00;100573.81;4986296;28;20208;-76
2023/08/20 00:35:28;;;;;;;9.23;8.43;;;;;;;23.28;100.00;100568.53;4983092;28;20288;-76
2023/08/20 00:37:53;;;;;;;8.93;8.17;;;;;;;23.27;100.00;100575.63;4983718;28;20200;-76
2023/08/20 00:40:19;;;;;;;8.60;8.00;;;;;;;23.29;100.00;100588.72;4983590;28;20181;-77
2023/08/20 00:42:44;;;;;;;8.10;7.60;;;;;;;23.29;100.00;100586.06;4999586;28;20668;-76
2023/08/20 00:45:10;;;;;;;8.33;7.67;;;;;;;23.28;100.00;100589.66;4986250;28;20208;-77
2023/08/20 00:47:35;;;;;;;9.47;8.60;;;;;;;23.27;100.00;100582.66;4991421;28;20209;-78
2023/08/20 00:50:06;;;;;;;9.63;8.93;;;;;;;23.28;100.00;100587.00;4988149;28;20197;-76
2023/08/20 00:52:32;;;;;;;9.30;8.60;;;;;;;23.28;100.00;100582.59;4981830;28;20255;-75
2023/08/20 00:54:57;;;;;;;9.77;8.97;;;;;;;23.28;100.00;100579.97;4984995;28;20209;-77
2023/08/20 00:57:23;;;;;;;10.20;9.40;;;;;;;23.26;100.00;100584.47;4983815;28;20609;-76
2023/08/20 00:59:50;;;;;;;9.50;8.70;;;;;;;23.25;100.00;100584.53;4988680;28;20200;-77
2023/08/20 01:02:17;;;;;;;10.27;9.47;;;;;;;23.21;100.00;100577.75;4982478;28;20201;-75
2023/08/20 01:04:42;;;;;;;9.57;8.77;;;;;;;23.20;100.00;100579.53;4984565;28;20213;-76
2023/08/20 01:07:26;;;;;;;9.80;9.10;;;;;;;23.17;100.00;100579.69;4993129;28;20190;-76
2023/08/20 01:10:25;;;;;;;9.80;8.97;;;;;;;23.14;100.00;100580.72;4975721;28;20189;-76
2023/08/20 01:12:51;;;;;;;9.40;8.67;;;;;;;23.10;100.00;100581.81;4986572;28;20184;-76
2023/08/20 01:15:17;;;;;;;9.10;8.47;;;;;;;23.08;100.00;100580.22;4981694;28;20564;-76
2023/08/20 01:17:45;;;;;;;10.37;9.47;;;;;;;23.04;100.00;100574.25;4984055;28;20191;-76
2023/08/20 01:20:13;;;;;;;9.60;8.80;;;;;;;23.03;100.00;100574.34;4982979;28;20181;-76
2023/08/20 01:23:00;;;;;;;9.13;8.33;;;;;;;22.98;100.00;100566.69;4982996;28;20199;-76
2023/08/20 01:26:05;;;;;;;9.83;9.13;;;;;;;22.96;100.00;100565.91;4981921;28;20567;-75
2023/08/20 01:28:31;;;;;;;9.43;8.73;;;;;;;22.94;100.00;100566.00;4980347;28;20235;-75
2023/08/20 01:30:59;;;;;;;10.10;9.37;;;;;;;22.94;100.00;100575.69;4980995;28;20212;-77
2023/08/20 01:33:25;;;;;;;9.50;8.90;;;;;;;22.92;100.00;100578.44;4980798;28;20192;-76
2023/08/20 01:35:52;;;;;;;9.30;8.60;;;;;;;22.91;100.00;100586.47;4984771;28;20220;-77
2023/08/20 01:38:17;;;;;;;8.87;8.27;;;;;;;22.87;100.00;100588.38;4977289;28;20848;-76
2023/08/20 01:40:42;;;;;;;9.67;8.97;;;;;;;22.83;100.00;100590.34;4979282;28;20284;-76
2023/08/20 01:43:08;;;;;;;9.40;8.70;;;;;;;22.81;100.00;100592.22;4980695;28;20566;-76
2023/08/20 01:45:33;;;;;;;8.47;7.87;;;;;;;22.77;100.00;100595.97;4988488;28;20201;-75
2023/08/20 01:47:59;;;;;;;8.57;7.97;;;;;;;22.76;100.00;100603.97;4981860;28;20212;-76
2023/08/20 01:50:24;;;;;;;8.63;7.83;;;;;;;22.72;100.00;100597.16;4981988;28;20201;-76
2023/08/20 01:52:49;;;;;;;8.57;7.97;;;;;;;22.68;100.00;100599.13;4979948;28;20205;-76
2023/08/20 01:55:15;;;;;;;8.83;8.13;;;;;;;22.64;100.00;100592.31;4976914;28;20307;-76
2023/08/20 01:57:40;;;;;;;8.73;8.03;;;;;;;22.60;100.00;100601.34;4984492;28;20197;-76
2023/08/20 02:00:06;;;;;;;8.70;8.10;;;;;;;22.55;100.00;100598.94;4983331;28;20181;-76
2023/08/20 02:02:32;;;;;;;9.07;8.47;;;;;;;22.53;100.00;100604.31;4982406;28;20232;-75
2023/08/20 02:04:57;;;;;;;9.00;8.30;;;;;;;22.53;100.00;100598.19;4976960;28;20826;-76
2023/08/20 02:07:23;;;;;;;8.60;8.00;;;;;;;22.52;100.00;100597.31;4975871;28;20189;-76
2023/08/20 02:09:48;;;;;;;8.50;7.80;;;;;;;22.51;100.00;100598.25;4983352;28;20189;-76
2023/08/20 02:12:14;;;;;;;8.00;7.40;;;;;;;22.50;100.00;100599.19;4987419;28;20232;-76
2023/08/20 02:14:39;;;;;;;8.90;8.30;;;;;;;22.47;100.00;100586.16;4978710;28;20292;-76
2023/08/20 02:17:05;;;;;;;8.80;8.10;;;;;;;22.44;100.00;100585.47;4984112;28;20210;-76
2023/08/20 02:19:30;;;;;;;8.47;7.77;;;;;;;22.42;100.00;100576.78;4986756;28;20193;-76
2023/08/20 02:21:55;;;;;;;8.93;8.23;;;;;;;22.41;100.00;100567.16;4982712;28;20211;-76
2023/08/20 02:24:21;;;;;;;8.63;8.03;;;;;;;22.42;100.00;100567.13;4978129;28;20186;-77
2023/08/20 02:26:46;;;;;;;7.73;7.23;;;;;;;22.42;100.00;100556.56;4985560;28;20606;-76
2023/08/20 02:29:11;;;;;;;8.77;8.07;;;;;;;22.41;100.00;100557.47;4985443;28;20185;-76
2023/08/20 02:31:37;;;;;;;9.30;8.70;;;;;;;22.41;100.00;100551.31;4986579;28;20697;-77
2023/08/20 02:34:02;;;;;;;8.73;8.07;;;;;;;22.41;100.00;100546.06;4997148;28;20196;-77
2023/08/20 02:36:28;;;;;;;9.33;8.60;;;;;;;22.40;100.00;100547.84;4983966;28;20205;-76
2023/08/20 02:38:53;;;;;;;10.83;9.93;;;;;;;22.39;100.00;100548.78;5001358;28;20189;-76
2023/08/20 02:41:19;;;;;;;9.27;8.67;;;;;;;22.36;100.00;100552.44;5000625;28;20193;-76
2023/08/20 02:43:45;;;;;;;9.10;8.40;;;;;;;22.32;100.00;100557.94;4986872;28;20189;-76
2023/08/20 02:46:10;;;;;;;8.97;8.37;;;;;;;22.24;100.00;100558.38;4999957;28;20200;-77
2023/08/20 02:48:35;;;;;;;9.27;8.40;;;;;;;22.19;100.00;100560.41;4984765;28;20177;-77
2023/08/20 02:51:00;;;;;;;8.57;7.97;;;;;;;22.13;100.00;100558.97;4984220;28;20718;-77
2023/08/20 02:53:26;;;;;;;8.93;8.23;;;;;;;22.09;100.00;100562.69;4991150;28;20727;-76
2023/08/20 02:55:51;;;;;;;8.03;7.47;;;;;;;22.05;100.00;100554.09;4999407;28;20209;-76
2023/08/20 02:58:16;;;;;;;8.60;7.97;;;;;;;22.04;100.00;100559.44;4983671;28;20283;-76
2023/08/20 03:00:44;;;;;;;8.17;7.60;;;;;;;22.00;100.00;100545.56;4980623;28;20200;-75
2023/08/20 03:03:10;;;;;;;8.93;8.23;;;;;;;21.99;100.00;100540.41;4984671;28;20212;-76
2023/08/20 03:05:36;;;;;;;8.60;8.10;;;;;;;21.98;100.00;100536.06;4985547;28;20209;-76
2023/08/20 03:08:01;;;;;;;9.03;8.23;;;;;;;21.99;100.00;100535.97;4987047;28;20216;-77
2023/08/20 03:10:27;;;;;;;10.90;9.77;;;;;;;21.98;100.00;100536.06;4984512;28;20265;-76
2023/08/20 03:12:53;;;;;;;10.30;9.50;;;;;;;21.97;100.00;100540.47;4978277;28;20193;-76
2023/08/20 03:15:18;;;;;;;9.63;8.97;;;;;;;21.95;100.00;100537.06;4975383;28;20259;-76
2023/08/20 03:17:43;;;;;;;9.77;9.07;;;;;;;21.94;100.00;100540.63;4981297;28;20224;-76
2023/08/20 03:20:09;;;;;;;9.03;8.43;;;;;;;21.91;100.00;100540.81;4984145;28;20195;-74
2023/08/20 03:22:37;;;;;;;9.10;8.40;;;;;;;21.89;100.00;100546.13;4987122;28;20224;-76
2023/08/20 03:25:02;;;;;;;8.63;8.03;;;;;;;21.88;100.00;100554.97;4984149;28;20205;-76
2023/08/20 03:27:28;;;;;;;8.63;8.03;;;;;;;21.84;100.00;100553.44;5002368;28;20217;-75
2023/08/20 03:29:53;;;;;;;8.57;7.97;;;;;;;21.81;100.00;100556.22;4981164;28;20207;-76
2023/08/20 03:32:18;;;;;;;8.90;8.20;;;;;;;21.76;100.00;100559.09;4997540;28;20185;-76
2023/08/20 03:34:44;;;;;;;8.90;8.20;;;;;;;21.71;100.00;100555.84;4983817;28;20291;-76
2023/08/20 03:37:09;;;;;;;8.80;8.13;;;;;;;21.67;100.00;100556.09;4983285;28;20218;-76
2023/08/20 03:39:34;;;;;;;8.50;7.90;;;;;;;21.61;100.00;100558.09;4983232;28;20280;-76
2023/08/20 03:42:00;;;;;;;9.23;8.53;;;;;;;21.59;100.00;100562.56;4985743;28;20231;-76
2023/08/20 03:44:25;;;;;;;8.27;7.67;;;;;;;21.57;100.00;100574.09;4980587;28;20219;-76
2023/08/20 03:46:50;;;;;;;8.63;8.00;;;;;;;21.54;100.00;100576.88;4987757;28;20232;-76
2023/08/20 03:49:16;;;;;;;8.93;8.27;;;;;;;21.52;100.00;100578.75;4984962;28;20226;-76
2023/08/20 03:51:42;;;;;;;8.80;8.13;;;;;;;21.51;100.00;100583.19;4985047;28;20197;-76
2023/08/20 03:54:08;;;;;;;8.67;7.97;;;;;;;21.51;100.00;100579.66;4981929;28;20244;-76
2023/08/20 03:56:33;;;;;;;8.93;8.23;;;;;;;21.51;100.00;100572.63;4982175;28;20209;-76
2023/08/20 03:58:59;;;;;;;9.60;8.90;;;;;;;21.53;100.00;100562.00;4987239;28;20203;-76
2023/08/20 04:01:24;;;;;;;10.43;9.63;;;;;;;21.54;100.00;100554.06;4984923;28;20207;-76
2023/08/20 04:03:49;;;;;;;9.90;9.10;;;;;;;21.58;100.00;100560.84;4980809;28;20196;-76
2023/08/20 04:06:15;;;;;;;10.37;9.57;;;;;;;21.62;100.00;100572.97;4984030;28;20591;-76
2023/08/20 04:08:40;;;;;;;10.33;9.43;;;;;;;21.66;100.00;100576.28;4983501;28;20189;-74
2023/08/20 04:11:06;;;;;;;10.23;9.43;;;;;;;21.69;100.00;100584.03;4981231;28;20692;-76
2023/08/20 04:13:31;;;;;;;9.80;9.00;;;;;;;21.69;100.00;100589.31;4985799;28;20290;-76
2023/08/20 04:15:57;;;;;;;10.30;9.50;;;;;;;21.70;100.00;100582.28;4980407;28;20221;-76
2023/08/20 04:18:23;;;;;;;9.80;9.20;;;;;;;21.70;100.00;100580.47;4984927;28;20193;-76
2023/08/20 04:20:52;;;;;;;10.40;9.60;;;;;;;21.71;100.00;100576.06;4981595;28;20665;-76
2023/08/20 04:23:18;;;;;;;10.20;9.50;;;;;;;21.71;100.00;100573.41;4981877;28;20176;-76
2023/08/20 04:25:44;;;;;;;9.23;8.63;;;;;;;21.70;100.00;100575.22;4983329;28;20220;-77
2023/08/20 04:28:10;;;;;;;9.63;9.00;;;;;;;21.69;100.00;100570.88;4987433;28;20185;-76
2023/08/20 04:30:36;;;;;;;10.20;9.40;;;;;;;21.69;100.00;100578.78;4983970;28;20191;-75
2023/08/20 04:33:01;;;;;;;9.83;9.03;;;;;;;21.68;100.00;100577.06;4984532;28;20238;-76
2023/08/20 04:35:27;;;;;;;9.63;8.97;;;;;;;21.66;100.00;100586.84;4999233;28;20625;-76
2023/08/20 04:37:52;;;;;;;9.50;8.90;;;;;;;21.64;100.00;100591.31;4987356;28;20732;-75
2023/08/20 04:40:18;;;;;;;9.80;9.00;;;;;;;21.61;100.00;100587.06;4984054;28;20299;-76
2023/08/20 04:42:43;;;;;;;9.97;9.27;;;;;;;21.60;100.00;100579.25;4984233;28;20188;-75
2023/08/20 04:45:09;;;;;;;8.87;8.17;;;;;;;21.61;100.00;100588.88;4986335;28;20208;-76
2023/08/20 04:47:35;;;;;;;9.83;9.03;;;;;;;21.62;100.00;100583.50;4987360;28;20275;-76
2023/08/20 04:50:01;;;;;;;9.93;9.10;;;;;;;21.65;100.00;100595.66;4980347;28;20733;-76
2023/08/20 04:52:26;;;;;;;8.80;8.20;;;;;;;21.69;100.00;100599.00;4983687;28;21147;-76
2023/08/20 04:54:51;;;;;;;9.10;8.40;;;;;;;21.71;100.00;100602.41;4984545;28;20219;-77
2023/08/20 04:57:17;;;;;;;9.63;8.93;;;;;;;21.75;100.00;100609.22;4998014;28;20216;-77
2023/08/20 04:59:45;;;;;;;8.53;7.93;;;;;;;21.78;100.00;100609.91;4981608;28;20191;-75
2023/08/20 05:02:12;;;;;;;9.50;8.83;;;;;;;21.82;100.00;100608.00;4984102;28;20641;-76
2023/08/20 05:04:37;;;;;;;9.63;8.93;;;;;;;21.88;100.00;100604.19;4989877;28;20205;-76
2023/08/20 05:07:03;;;;;;;9.37;8.67;;;;;;;21.94;100.00;100606.47;4979172;28;20182;-76
2023/08/20 05:09:28;;;;;;;9.83;9.13;;;;;;;22.00;100.00;100613.25;4983716;28;20189;-76
2023/08/20 05:11:54;;;;;;;8.93;8.30;;;;;;;22.08;100.00;100613.69;4983542;28;20205;-76
2023/08/20 05:14:19;;;;;;;8.97;8.37;;;;;;;22.17;100.00;100617.63;4988094;28;20196;-76
2023/08/20 05:16:44;;;;;;;10.03;9.30;;;;;;;22.28;100.00;100611.78;4983231;28;20322;-76
2023/08/20 05:19:10;;;;;;;9.33;8.67;;;;;;;22.39;100.00;100612.91;4983792;28;20284;-75
2023/08/20 05:21:35;;;;;;;9.63;8.93;;;;;;;22.55;100.00;100619.19;4983083;28;20230;-76
2023/08/20 05:24:00;;;;;;;9.43;8.63;;;;;;;22.68;100.00;100618.44;4986640;28;20247;-76
2023/08/20 05:26:26;;;;;;;8.93;8.20;;;;;;;22.83;100.00;100614.09;5003855;28;20198;-76
2023/08/20 05:28:51;;;;;;;9.60;8.80;;;;;;;23.06;100.00;100614.63;4988120;28;20180;-76
2023/08/20 05:31:16;;;;;;;9.00;8.30;;;;;;;23.28;100.00;100613.41;5000416;28;20185;-76
2023/08/20 05:33:41;;;;;;;9.50;8.60;;;;;;;23.39;100.00;100612.81;4981921;28;20480;-76
2023/08/20 05:36:07;;;;;;;8.40;7.80;;;;;;;23.54;100.00;100609.28;4984321;28;20252;-76
2023/08/20 05:38:32;;;;;;;8.90;8.10;;;;;;;23.91;100.00;100616.81;4980903;28;20184;-75
2023/08/20 05:40:57;;;;;;;8.33;7.63;;;;;;;24.15;100.00;100622.44;4997717;28;20303;-76
2023/08/20 05:43:23;;;;;;;8.80;8.07;;;;;;;24.35;100.00;100626.50;4982042;28;20185;-76
2023/08/20 05:45:48;;;;;;;7.60;7.00;;;;;;;24.61;100.00;100631.97;4985723;28;20283;-76
2023/08/20 05:48:13;;;;;;;8.13;7.33;;;;;;;24.71;100.00;100629.63;4989522;28;20212;-75
2023/08/20 05:50:38;;;;;;;7.80;7.20;;;;;;;24.71;100.00;100623.50;4990269;28;20189;-76
2023/08/20 05:53:04;;;;;;;8.07;7.40;;;;;;;24.69;100.00;100623.53;4988697;28;20190;-76
2023/08/20 05:55:29;;;;;;;7.70;7.03;;;;;;;24.67;100.00;100633.38;4986505;28;20212;-76
2023/08/20 05:57:54;;;;;;;7.43;6.80;;;;;;;24.68;100.00;100637.72;4986186;28;20289;-76
2023/08/20 06:00:20;;;;;;;8.33;7.60;;;;;;;24.66;100.00;100635.19;4988825;28;20192;-76
2023/08/20 06:02:45;;;;;;;7.60;7.10;;;;;;;24.65;100.00;100640.59;4997245;28;20681;-76
2023/08/20 06:05:11;;;;;;;8.33;7.53;;;;;;;24.64;100.00;100649.47;4984473;28;20200;-76
2023/08/20 06:07:36;;;;;;;11.87;7.63;;;;;;;24.61;100.00;100657.59;4979476;28;20188;-76
2023/08/20 06:10:02;;;;;;;8.40;7.70;;;;;;;24.60;100.00;100653.25;4986103;28;20577;-75
2023/08/20 06:12:28;;;;;;;7.87;7.13;;;;;;;24.57;100.00;100656.94;4980881;28;20275;-75
2023/08/20 06:14:53;;;;;;;8.67;7.87;;;;;;;24.54;100.00;100650.97;4982976;28;20243;-76
2023/08/20 06:17:18;;;;;;;8.50;7.90;;;;;;;24.49;100.00;100651.25;4997259;28;20218;-76
2023/08/20 06:19:44;;;;;;;8.27;7.63;;;;;;;24.41;100.00;100646.44;4988682;28;20189;-76
2023/08/20 06:22:10;;;;;;;9.23;8.33;;;;;;;24.33;100.00;100654.84;4985094;28;21257;-74
2023/08/20 06:24:35;;;;;;;8.43;7.73;;;;;;;24.32;100.00;100663.72;4990042;28;20204;-76
2023/08/20 06:27:00;;;;;;;8.43;7.80;;;;;;;24.33;100.00;100669.88;4984776;28;20257;-76
2023/08/20 06:29:26;;;;;;;8.00;7.40;;;;;;;24.39;100.00;100668.66;4994824;28;20198;-75
2023/08/20 06:31:51;;;;;;;7.83;7.23;;;;;;;24.73;100.00;100667.44;5013314;28;20200;-75
2023/08/20 06:34:16;;;;;;;8.53;7.87;;;;;;;25.30;100.00;100678.84;4990163;28;20732;-76
2023/08/20 06:36:42;;;;;;;8.10;7.33;;;;;;;25.83;100.00;100668.31;4992191;28;20240;-76
2023/08/20 06:39:08;;;;;;;8.57;7.77;;;;;;;26.41;100.00;100667.94;4990439;28;20208;-77
2023/08/20 06:41:34;;;;;;;7.95;7.35;;;;;;;26.92;100.00;100663.56;4988492;28;20216;-76
2023/08/20 06:43:59;;;;;;;7.50;6.90;;;;;;;27.32;100.00;100657.13;5002163;28;20196;-76
2023/08/20 06:46:24;;;;;;;6.53;6.05;;;;;;;27.77;100.00;100654.69;4986630;28;20264;-76
2023/08/20 06:48:50;;;;;;;7.32;6.63;;;;;;;28.26;100.00;100659.88;4987901;28;20196;-76
2023/08/20 06:51:19;;;;;;;7.35;6.75;;;;;;;28.77;100.00;100666.56;4986261;28;20247;-76
2023/08/20 06:53:45;;;;;;;8.38;7.05;;;;;;;29.09;100.00;100664.91;4990452;28;20219;-76
2023/08/20 06:56:11;;;;;;;9.10;8.40;;;;;;;28.63;100.00;100672.09;4987031;28;20220;-76
2023/08/20 06:58:37;;;;;;;7.95;7.35;;;;;;;28.97;99.80;100667.59;4997573;28;20223;-75
2023/08/20 07:01:09;;;;;;;7.97;7.38;;;;;;;29.50;97.65;100669.53;4986525;28;20188;-77
2023/08/20 07:03:39;;;;;;;7.60;7.00;;;;;;;29.68;97.01;100671.63;4987451;28;20212;-76
2023/08/20 07:06:04;;;;;;;6.95;6.45;;;;;;;29.66;96.57;100674.41;4985046;28;20228;-76
2023/08/20 07:08:31;;;;;;;9.00;8.10;;;;;;;29.24;96.22;100670.81;4987290;28;20288;-75
2023/08/20 07:10:57;;;;;;;8.05;7.35;;;;;;;29.21;96.92;100677.22;4983619;28;20469;-76
2023/08/20 07:13:23;;;;;;;8.20;6.68;;;;;;;29.30;97.15;100675.63;4978733;28;20203;-76
2023/08/20 07:15:48;;;;;;;8.40;7.70;;;;;;;29.09;97.89;100675.56;4988645;28;20213;-75
2023/08/20 07:18:14;;;;;;;8.57;7.78;;;;;;;28.67;99.14;100681.50;4988509;28;20264;-76
2023/08/20 07:20:43;;;;;;;7.75;7.05;;;;;;;28.79;99.97;100677.06;4986616;28;20276;-76
2023/08/20 07:23:09;;;;;;;6.75;6.25;;;;;;;28.88;98.40;100682.50;4986200;28;20612;-76
2023/08/20 07:25:39;;;;;;;7.78;7.28;;;;;;;28.65;99.26;100689.63;4986040;28;20205;-76
2023/08/20 07:28:05;;;;;;;7.95;7.35;;;;;;;28.45;100.00;100689.38;4985735;28;20204;-76
2023/08/20 07:30:31;;;;;;;8.32;7.70;;;;;;;28.42;100.00;100686.13;4988681;28;20276;-77
2023/08/20 07:32:57;;;;;;;7.38;6.78;;;;;;;28.65;100.00;100689.63;4984581;28;20200;-75
2023/08/20 07:35:22;;;;;;;8.13;7.32;;;;;;;28.68;100.00;100685.88;4998908;28;20229;-75
2023/08/20 07:37:48;;;;;;;8.52;7.40;;;;;;;28.56;100.00;100688.56;4986438;28;20248;-75
2023/08/20 07:40:13;;;;;;;7.22;6.63;;;;;;;28.90;99.52;100693.03;4982617;28;20193;-75
2023/08/20 07:42:40;;;;;;;7.50;6.80;;;;;;;28.81;100.00;100688.44;4986001;28;20661;-75
2023/08/20 07:45:07;;;;;;;7.50;6.78;;;;;;;28.94;98.94;100683.81;4982228;28;20311;-75
2023/08/20 07:47:32;;;;;;;7.38;6.78;;;;;;;28.65;99.61;100691.47;4983824;28;20551;-77
2023/08/20 07:49:58;;;;;;;8.23;7.30;;;;;;;28.41;100.00;100685.28;4985822;28;20195;-76
2023/08/20 07:52:23;;;;;;;7.30;6.78;;;;;;;28.81;99.68;100681.31;4983836;28;20200;-76
2023/08/20 07:54:48;;;;;;;7.38;6.78;;;;;;;28.86;99.24;100687.09;4982182;28;20257;-76
2023/08/20 07:57:14;;;;;;;8.00;7.13;;;;;;;28.95;98.89;100693.50;4986131;28;20269;-75
2023/08/20 07:59:39;;;;;;;7.20;6.57;;;;;;;28.88;98.92;100693.16;4982343;28;20189;-76
2023/08/20 08:02:05;;;;;;;7.90;6.38;;;;;;;29.24;97.40;100692.97;4986273;28;20237;-75
2023/08/20 08:04:30;;;;;;;7.80;7.10;;;;;;;29.31;97.18;100687.97;4999172;28;20221;-76
2023/08/20 08:06:55;;;;;;;7.10;6.55;;;;;;;28.96;98.36;100692.53;4979888;28;20185;-75
2023/08/20 08:09:26;;;;;;;6.30;5.90;;;;;;;29.40;97.37;100686.41;4987478;28;20281;-76
2023/08/20 08:11:51;;;;;;;7.22;6.63;;;;;;;28.90;98.82;100688.56;4982366;28;20889;-79
2023/08/20 08:14:17;;;;;;;7.72;7.00;;;;;;;29.02;98.20;100696.53;4987897;28;20203;-78
2023/08/20 08:16:43;;;;;;;7.18;6.57;;;;;;;29.13;98.01;100693.00;4980985;28;20570;-78
2023/08/20 08:19:08;;;;;;;7.55;6.85;;;;;;;29.21;98.08;100698.53;4995608;28;20192;-78
2023/08/20 08:21:33;;;;;;;7.65;6.97;;;;;;;29.26;97.19;100701.69;5005906;28;20253;-79
2023/08/20 08:23:59;;;;;;;8.38;7.00;;;;;;;29.30;97.05;100704.94;5010490;28;20285;-78
2023/08/20 08:26:24;;;;;;;7.90;7.30;;;;;;;29.50;96.35;100703.31;4982355;28;20244;-76
2023/08/20 08:28:49;;;;;;;8.68;7.75;;;;;;;28.81;97.90;100707.09;4979915;28;20186;-78
2023/08/20 08:31:15;;;;;;;9.05;8.15;;;;;;;28.63;99.50;100706.72;4984017;28;20209;-77
2023/08/20 08:33:40;;;;;;;8.23;7.47;;;;;;;28.34;100.00;100705.34;4975573;28;20215;-77
2023/08/20 08:36:05;;;;;;;7.75;7.10;;;;;;;28.36;100.00;100699.94;4981052;28;20776;-78
2023/08/20 08:38:31;;;;;;;8.50;7.80;;;;;;;28.14;100.00;100706.91;4984662;28;20227;-77
2023/08/20 08:40:57;;;;;;;8.57;7.83;;;;;;;27.97;100.00;100702.84;4979958;28;20187;-79
2023/08/20 08:43:22;;;;;;;8.10;7.30;;;;;;;28.13;100.00;100703.38;4993794;28;20190;-78
2023/08/20 08:45:48;;;;;;;9.77;7.93;;;;;;;27.97;100.00;100710.84;4981137;28;20936;-78
2023/08/20 08:48:15;;;;;;;9.60;8.63;;;;;;;27.67;100.00;100710.34;4981542;28;20187;-78
2023/08/20 08:50:40;;;;;;;8.37;7.57;;;;;;;27.81;100.00;100706.69;4981519;28;20189;-76
2023/08/20 08:53:07;;;;;;;9.20;8.40;;;;;;;27.91;100.00;100704.13;4980912;28;20188;-78
2023/08/20 08:55:33;;;;;;;9.13;8.20;;;;;;;27.59;100.00;100704.78;4980010;28;20236;-78
2023/08/20 08:57:59;;;;;;;9.10;8.27;;;;;;;27.38;100.00;100708.03;4980501;28;20742;-78
2023/08/20 09:00:24;;;;;;;9.57;7.80;;;;;;;27.26;100.00;100706.28;4982582;28;20192;-77
2023/08/20 09:02:49;;;;;;;9.40;8.47;;;;;;;27.37;100.00;100708.97;4979657;28;20197;-77
2023/08/20 09:05:15;;;;;;;9.67;7.53;;;;;;;27.45;100.00;100711.09;4979837;28;20258;-77
2023/08/20 09:07:47;;;;;;;9.30;8.40;;;;;;;27.76;100.00;100705.28;4981045;28;20273;-76
2023/08/20 09:10:12;;;;;;;8.73;7.97;;;;;;;27.65;100.00;100714.09;4996805;28;20666;-79
2023/08/20 09:12:38;;;;;;;8.33;7.53;;;;;;;27.74;100.00;100709.91;4980613;28;20185;-77
2023/08/20 09:15:10;;;;;;;9.37;8.57;;;;;;;27.65;100.00;100706.13;4978615;28;20232;-76
2023/08/20 09:17:35;;;;;;;8.40;7.70;;;;;;;27.79;100.00;100702.41;4978916;28;20212;-74
2023/08/20 09:20:01;;;;;;;8.70;7.73;;;;;;;27.96;100.00;100709.13;4978934;28;20224;-75
2023/08/20 09:22:26;;;;;;;9.30;7.10;;;;;;;27.79;100.00;100713.06;4978998;28;20195;-76
2023/08/20 09:24:54;;;;;;;9.60;7.97;;;;;;;27.92;100.00;100710.31;4975588;28;20209;-75
2023/08/20 09:27:20;;;;;;;8.70;7.80;;;;;;;28.10;100.00;100721.41;4977462;28;20176;-75
2023/08/20 09:29:55;;;;;;;8.60;7.80;;;;;;;27.99;100.00;100717.72;4980256;28;20191;-75
2023/08/20 09:32:23;;;;;;;9.30;8.40;;;;;;;28.21;100.00;100720.59;4980976;28;20211;-76
2023/08/20 09:34:49;;;;;;;9.37;8.37;;;;;;;28.35;100.00;100716.88;4980772;28;20197;-75
2023/08/20 09:37:17;;;;;;;7.87;7.17;;;;;;;28.23;100.00;100716.00;4990744;28;20796;-75
2023/08/20 09:39:43;;;;;;;7.93;7.10;;;;;;;28.26;100.00;100715.75;4982181;28;20196;-76
2023/08/20 09:42:09;;;;;;;8.43;7.57;;;;;;;28.32;100.00;100711.78;4981895;28;20182;-76
2023/08/20 09:44:37;;;;;;;9.20;8.30;;;;;;;28.27;100.00;100714.81;4983043;28;20208;-76
2023/08/20 09:47:05;;;;;;;8.77;8.07;;;;;;;28.35;100.00;100714.22;4981845;28;21019;-76
2023/08/20 09:49:35;;;;;;;8.77;8.07;;;;;;;28.60;100.00;100719.31;4983060;28;20652;-76
2023/08/20 09:52:04;;;;;;;8.80;8.00;;;;;;;28.58;100.00;100715.91;4984888;28;20192;-78
2023/08/20 09:55:07;;;;;;;10.50;8.37;;;;;;;28.67;100.00;100713.47;4984992;28;20265;-76
2023/08/20 09:57:38;;;;;;;8.57;7.87;;;;;;;28.77;100.00;100714.50;4987002;28;20203;-76
2023/08/20 10:00:11;;;;;;;9.20;8.40;;;;;;;28.58;100.00;100701.75;4983148;28;20610;-76
2023/08/20 10:02:37;;;;;;;8.87;8.00;;;;;;;28.70;100.00;100711.44;4980878;28;20288;-75
2023/08/20 10:05:05;;;;;;;8.83;8.00;;;;;;;28.84;99.62;100710.34;4982206;28;20262;-76
2023/08/20 10:07:32;;;;;;;9.00;8.10;;;;;;;28.84;99.95;100707.69;4983011;28;20193;-76
2023/08/20 10:10:00;;;;;;;10.67;8.27;;;;;;;28.78;99.67;100694.88;4985303;28;20231;-76
2023/08/20 10:12:27;;;;;;;8.97;8.17;;;;;;;28.93;100.00;100700.78;5007703;28;20212;-77
2023/08/20 10:14:53;;;;;;;9.13;8.00;;;;;;;28.91;100.00;100700.03;4989276;28;20744;-76
2023/08/20 10:17:18;;;;;;;8.40;7.70;;;;;;;29.18;99.90;100694.31;4980424;28;20292;-77
2023/08/20 10:19:43;;;;;;;8.05;7.28;;;;;;;29.22;99.73;100694.91;4979016;28;20729;-76
2023/08/20 10:22:09;;;;;;;8.40;7.70;;;;;;;28.97;100.00;100696.91;4978365;28;20213;-76
2023/08/20 10:24:46;;;;;;;9.07;7.10;;;;;;;29.15;99.01;100689.22;4985313;28;20235;-76
2023/08/20 10:27:12;;;;;;;8.17;7.37;;;;;;;29.11;96.07;100689.59;4979795;28;20184;-77
2023/08/20 10:29:42;;;;;;;7.40;6.70;;;;;;;29.49;96.03;100689.16;4975088;28;22656;-75
2023/08/20 10:32:13;;;;;;;8.00;7.28;;;;;;;29.52;94.32;100701.38;4998608;28;20220;-75
2023/08/20 10:34:49;;;;;;;9.23;7.20;;;;;;;29.50;94.20;100682.84;4977543;28;20292;-76
2023/08/20 10:37:15;;;;;;;8.65;6.75;;;;;;;29.51;95.99;100681.00;4985959;28;20213;-76
2023/08/20 10:39:45;;;;;;;6.60;5.95;;;;;;;29.38;93.16;100683.00;4984239;28;20200;-76
2023/08/20 10:42:41;;;;;;;7.83;6.87;;;;;;;29.14;96.81;100686.69;4985062;28;20645;-75
2023/08/20 10:45:09;;;;;;;7.87;7.17;;;;;;;29.10;95.42;100691.44;4981024;28;20702;-76
2023/08/20 10:47:41;;;;;;;7.47;6.88;;;;;;;29.20;95.03;100684.38;4985869;28;20324;-76
2023/08/20 10:50:08;;;;;;;7.27;6.60;;;;;;;29.23;94.72;100677.09;4984891;28;20193;-76
2023/08/20 10:52:39;;;;;;;7.43;6.73;;;;;;;29.37;94.73;100679.50;4986508;28;20189;-76
2023/08/20 10:55:07;;;;;;;7.83;7.00;;;;;;;29.48;94.10;100679.47;4983973;28;20211;-76
2023/08/20 10:57:34;;;;;;;9.17;7.07;;;;;;;29.62;92.80;100675.66;4983507;28;20268;-75
2023/08/20 11:00:06;;;;;;;7.63;6.93;;;;;;;29.58;93.37;100668.88;4997235;28;20197;-76
2023/08/20 11:02:33;;;;;;;7.30;6.60;;;;;;;29.78;91.85;100677.88;4984875;28;20748;-76
2023/08/20 11:04:58;;;;;;;8.33;6.60;;;;;;;29.92;90.91;100675.84;4984920;28;20205;-74
2023/08/20 11:07:26;;;;;;;10.03;6.23;;;;;;;29.82;90.97;100678.44;4982565;28;20189;-76
2023/08/20 11:09:53;;;;;;;7.05;6.40;;;;;;;29.65;90.06;100674.53;4982421;28;20665;-76
2023/08/20 11:12:20;;;;;;;7.07;6.37;;;;;;;29.69;90.57;100675.13;4983900;28;20225;-76
2023/08/20 11:14:46;;;;;;;8.07;6.50;;;;;;;29.74;89.88;100667.59;4983778;28;20268;-75
2023/08/20 11:17:11;;;;;;;7.03;6.33;;;;;;;29.78;90.87;100663.69;4984939;28;20736;-75